createdAt,value
2023-04-18T00:01:44.556Z,54.67
2023-04-18T00:04:13.616Z,55.24
2023-04-18T00:06:40.905Z,54.76
2023-04-18T00:09:07.674Z,54.74
2023-04-18T00:11:34.899Z,54.85
2023-04-18T00:14:03.314Z,55.07
2023-04-18T00:16:30.213Z,54.35
2023-04-18T00:18:57.461Z,54.96
2023-04-18T00:21:25.634Z,54.63
2023-04-18T00:23:52.516Z,55.38
2023-04-18T00:26:19.342Z,55.34
2023-04-18T00:28:47.892Z,55.49
2023-04-18T00:31:14.613Z,53.98
2023-04-18T00:33:41.419Z,55.01
2023-04-18T00:36:08.183Z,55.23
2023-04-18T00:38:35.691Z,55.18
2023-04-18T00:41:02.368Z,56.15
2023-04-18T00:43:28.993Z,56.16
2023-04-18T00:45:57.188Z,55.27
2023-04-18T00:48:24.579Z,55.95
2023-04-18T00:50:51.225Z,55.75
2023-04-18T00:53:17.878Z,55.68
2023-04-18T00:55:44.682Z,55.92
2023-04-18T00:58:12.066Z,56.41
2023-04-18T01:00:38.704Z,56.65
2023-04-18T01:03:06.741Z,56.32
2023-04-18T01:05:35.145Z,57.33
2023-04-18T01:08:04.094Z,57.16
2023-04-18T01:10:35.851Z,56.57
2023-04-18T01:13:16.563Z,56.73
2023-04-18T01:15:44.954Z,56.17
2023-04-18T01:18:13.195Z,57.40
2023-04-18T01:20:42.471Z,57.58
2023-04-18T01:23:10.596Z,58.78
2023-04-18T01:25:37.403Z,59.93
2023-04-18T01:28:04.652Z,60.10
2023-04-18T01:30:31.535Z,59.77
2023-04-18T01:32:58.628Z,59.47
2023-04-18T01:35:27.038Z,59.80
2023-04-18T01:37:57.188Z,59.17
2023-04-18T01:40:24.716Z,59.00
2023-04-18T01:42:51.643Z,58.14
2023-04-18T01:45:20.036Z,58.46
2023-04-18T01:47:47.011Z,58.28
2023-04-18T01:50:14.154Z,58.36
2023-04-18T01:52:42.765Z,58.46
2023-04-18T01:55:09.954Z,59.00
2023-04-18T01:57:36.787Z,58.28
2023-04-18T02:00:06.158Z,58.89
2023-04-18T02:02:41.558Z,58.23
2023-04-18T02:05:09.170Z,58.50
2023-04-18T02:07:40.251Z,58.01
2023-04-18T02:10:07.869Z,58.52
2023-04-18T02:12:34.499Z,59.28
2023-04-18T02:15:01.355Z,59.78
2023-04-18T02:17:28.535Z,59.08
2023-04-18T02:19:55.226Z,58.86
2023-04-18T02:22:21.960Z,59.21
2023-04-18T02:24:48.614Z,59.78
2023-04-18T02:27:15.291Z,59.06
2023-04-18T02:29:41.987Z,58.75
2023-04-18T02:32:09.165Z,58.67
2023-04-18T02:34:36.953Z,59.79
2023-04-18T02:37:04.822Z,59.30
2023-04-18T02:39:32.562Z,58.63
2023-04-18T02:41:59.480Z,58.06
2023-04-18T02:44:26.402Z,58.36
2023-04-18T02:46:53.321Z,58.70
2023-04-18T02:49:20.293Z,59.53
2023-04-18T02:51:48.126Z,59.92
2023-04-18T02:54:16.871Z,60.34
2023-04-18T02:56:58.623Z,59.56
2023-04-18T02:59:36.160Z,59.77
2023-04-18T03:02:29.593Z,59.44
2023-04-18T03:05:02.429Z,60.12
2023-04-18T03:07:31.078Z,58.69
2023-04-18T03:10:00.006Z,59.82
2023-04-18T03:12:31.754Z,59.90
2023-04-18T03:14:59.643Z,62.02
2023-04-18T03:17:28.171Z,61.11
2023-04-18T03:19:55.180Z,61.15
2023-04-18T03:22:23.375Z,60.04
2023-04-18T03:24:55.396Z,62.59
2023-04-18T03:27:29.913Z,63.31
2023-04-18T03:29:57.100Z,64.06
2023-04-18T03:32:24.475Z,63.83
2023-04-18T03:34:51.676Z,63.67
2023-04-18T03:37:19.080Z,63.59
2023-04-18T03:39:50.769Z,63.05
2023-04-18T03:42:17.974Z,63.24
2023-04-18T03:44:44.948Z,62.83
2023-04-18T03:47:12.306Z,62.18
2023-04-18T03:49:41.886Z,62.40
2023-04-18T03:52:08.903Z,62.49
2023-04-18T03:54:35.776Z,61.59
2023-04-18T03:57:04.238Z,62.39
2023-04-18T03:59:32.673Z,62.62
2023-04-18T04:02:00.326Z,62.79
2023-04-18T04:04:27.845Z,63.71
2023-04-18T04:06:56.727Z,63.29
2023-04-18T04:09:23.619Z,63.38
2023-04-18T04:11:50.763Z,63.13
2023-04-18T04:14:17.674Z,62.39
2023-04-18T04:16:46.363Z,62.77
2023-04-18T04:19:16.255Z,62.75
2023-04-18T04:21:51.382Z,63.16
2023-04-18T04:24:18.732Z,62.79
2023-04-18T04:26:48.823Z,62.69
2023-04-18T04:29:19.709Z,62.08
2023-04-18T04:31:48.030Z,61.97
2023-04-18T04:34:22.816Z,62.78
2023-04-18T04:36:51.233Z,61.09
2023-04-18T04:39:18.761Z,61.42
2023-04-18T04:42:09.735Z,61.15
2023-04-18T04:44:46.678Z,60.77
2023-04-18T04:47:15.372Z,62.13
2023-04-18T04:49:42.249Z,61.42
2023-04-18T04:52:09.908Z,61.81
2023-04-18T04:54:36.829Z,61.34
2023-04-18T04:57:06.049Z,61.90
2023-04-18T04:59:32.986Z,61.47
2023-04-18T05:02:01.220Z,61.70
2023-04-18T05:04:28.245Z,62.15
2023-04-18T05:06:57.014Z,62.31
2023-04-18T05:09:24.111Z,61.88
2023-04-18T05:11:50.993Z,61.99
2023-04-18T05:14:18.022Z,63.07
2023-04-18T05:16:45.122Z,63.28
2023-04-18T05:19:12.099Z,62.57
2023-04-18T05:21:38.982Z,62.36
2023-04-18T05:24:05.887Z,63.02
2023-04-18T05:26:32.749Z,62.92
2023-04-18T05:28:59.867Z,62.44
2023-04-18T05:31:26.901Z,61.86
2023-04-18T05:33:53.901Z,61.72
2023-04-18T05:36:20.850Z,62.36
2023-04-18T05:38:47.790Z,62.82
2023-04-18T05:41:14.622Z,62.82
2023-04-18T05:43:43.019Z,62.67
2023-04-18T05:46:13.318Z,62.25
2023-04-18T05:48:40.183Z,62.18
2023-04-18T05:51:07.194Z,62.74
2023-04-18T05:53:34.344Z,62.14
2023-04-18T05:56:01.464Z,62.25
2023-04-18T05:58:28.970Z,61.63
2023-04-18T06:00:56.055Z,62.15
2023-04-18T06:03:23.069Z,61.56
2023-04-18T06:05:50.365Z,62.21
2023-04-18T06:08:17.215Z,60.05
2023-04-18T06:10:44.104Z,61.06
2023-04-18T06:13:11.019Z,61.31
2023-04-18T06:15:38.043Z,59.58
2023-04-18T06:18:06.424Z,60.20
2023-04-18T06:20:33.414Z,60.60
2023-04-18T06:23:00.271Z,60.81
2023-04-18T06:25:29.942Z,60.59
2023-04-18T06:27:56.915Z,61.55
2023-04-18T06:30:23.912Z,61.08
2023-04-18T06:32:50.874Z,61.50
2023-04-18T06:35:17.995Z,59.55
2023-04-18T06:37:45.491Z,59.71
2023-04-18T06:40:12.648Z,59.69
2023-04-18T06:42:39.651Z,59.74
2023-04-18T06:45:07.216Z,60.17
2023-04-18T06:47:34.211Z,60.37
2023-04-18T06:50:01.153Z,59.79
2023-04-18T06:52:28.018Z,58.55
2023-04-18T06:54:54.907Z,57.95
2023-04-18T06:57:21.912Z,55.27
2023-04-18T06:59:48.745Z,55.13
2023-04-18T07:02:15.782Z,56.42
2023-04-18T07:04:42.809Z,56.06
2023-04-18T07:07:09.919Z,56.57
2023-04-18T07:09:36.713Z,56.74
2023-04-18T07:12:03.747Z,56.13
2023-04-18T07:14:32.892Z,57.16
2023-04-18T07:17:01.727Z,56.17
2023-04-18T07:19:28.809Z,55.92
2023-04-18T07:21:56.086Z,56.66
2023-04-18T07:24:25.811Z,56.63
2023-04-18T07:26:54.927Z,57.04
2023-04-18T07:29:22.272Z,55.84
2023-04-18T07:31:49.469Z,56.72
2023-04-18T07:34:16.573Z,56.57
2023-04-18T07:36:43.553Z,56.99
2023-04-18T07:39:11.099Z,55.97
2023-04-18T07:41:38.002Z,56.54
2023-04-18T07:44:05.195Z,56.20
2023-04-18T07:46:32.572Z,54.84
2023-04-18T07:48:59.743Z,52.37
2023-04-18T07:51:31.407Z,53.88
2023-04-18T07:53:59.045Z,55.38
2023-04-18T07:56:27.020Z,55.52
2023-04-18T07:58:54.489Z,56.08
2023-04-18T08:01:24.259Z,56.11
2023-04-18T08:03:52.573Z,55.92
2023-04-18T08:06:19.452Z,55.83
2023-04-18T08:08:46.500Z,56.82
2023-04-18T08:11:13.379Z,56.02
2023-04-18T08:13:40.373Z,56.48
2023-04-18T08:16:07.339Z,56.43
2023-04-18T08:18:34.294Z,55.87
2023-04-18T08:21:01.132Z,56.13
2023-04-18T08:23:27.995Z,54.90
2023-04-18T08:25:54.916Z,55.30
2023-04-18T08:28:21.939Z,55.22
2023-04-18T08:30:49.248Z,55.73
2023-04-18T08:33:16.413Z,55.16
2023-04-18T08:35:43.520Z,55.54
2023-04-18T08:38:10.558Z,56.04
2023-04-18T08:40:38.652Z,55.99
2023-04-18T08:43:09.467Z,55.61
2023-04-18T08:45:37.038Z,54.60
2023-04-18T08:48:04.140Z,54.40
2023-04-18T08:50:31.960Z,54.54
2023-04-18T08:53:00.954Z,55.70
2023-04-18T08:55:27.944Z,54.76
2023-04-18T08:57:55.667Z,55.00
2023-04-18T09:00:23.758Z,54.28
2023-04-18T09:02:55.140Z,54.89
2023-04-18T09:05:23.669Z,54.69
2023-04-18T09:07:53.000Z,53.54
2023-04-18T09:10:34.195Z,53.73
2023-04-18T09:13:03.273Z,55.13
2023-04-18T09:15:30.799Z,54.64
2023-04-18T09:18:02.292Z,54.22
2023-04-18T09:20:43.904Z,54.64
2023-04-18T09:23:14.644Z,55.58
2023-04-18T09:25:44.247Z,53.54
2023-04-18T09:28:27.049Z,52.48
2023-04-18T09:30:56.190Z,54.95
2023-04-18T09:33:28.405Z,53.83
2023-04-18T09:35:56.491Z,54.39
2023-04-18T09:38:41.915Z,54.72
2023-04-18T09:41:12.470Z,53.87
2023-04-18T09:43:39.372Z,53.84
2023-04-18T09:46:07.598Z,54.12
2023-04-18T09:48:34.368Z,53.31
2023-04-18T09:51:09.299Z,51.36
2023-04-18T09:53:39.989Z,52.48
2023-04-18T09:56:12.879Z,51.38
2023-04-18T09:58:42.280Z,52.98
2023-04-18T10:01:09.306Z,52.07
2023-04-18T10:03:44.742Z,50.53
2023-04-18T10:06:12.350Z,50.52
2023-04-18T10:08:40.026Z,47.75
2023-04-18T10:11:06.718Z,50.27
2023-04-18T10:13:36.129Z,48.51
2023-04-18T10:16:03.233Z,47.67
2023-04-18T10:18:29.920Z,45.95
2023-04-18T10:21:04.043Z,47.90
2023-04-18T10:23:49.212Z,49.36
2023-04-18T10:26:16.299Z,50.73
2023-04-18T10:28:48.917Z,50.46
2023-04-18T10:31:16.885Z,51.26
2023-04-18T10:34:03.884Z,49.69
2023-04-18T10:36:33.044Z,49.97
2023-04-18T10:39:02.999Z,49.81
2023-04-18T10:41:31.406Z,51.00
2023-04-18T10:44:10.164Z,49.99
2023-04-18T10:46:41.876Z,48.38
2023-04-18T10:49:28.427Z,47.37
2023-04-18T10:52:00.717Z,50.10
2023-04-18T10:54:49.466Z,48.31
2023-04-18T10:57:16.399Z,45.96
2023-04-18T10:59:47.315Z,42.03
2023-04-18T11:02:25.260Z,39.24
2023-04-18T11:04:54.132Z,45.20
2023-04-18T11:07:39.068Z,45.16
2023-04-18T11:10:07.964Z,46.00
2023-04-18T11:12:36.904Z,43.42
2023-04-18T11:15:11.227Z,42.13
2023-04-18T11:17:42.259Z,42.03
2023-04-18T11:20:11.010Z,38.84
2023-04-18T11:22:50.828Z,41.70
2023-04-18T11:25:19.200Z,39.02
2023-04-18T11:27:49.888Z,38.49
2023-04-18T11:30:16.678Z,34.93
2023-04-18T11:32:43.876Z,34.61
2023-04-18T11:35:12.874Z,33.54
2023-04-18T11:37:41.404Z,34.71
2023-04-18T11:40:09.935Z,38.18
2023-04-18T11:42:38.967Z,39.29
2023-04-18T11:45:17.387Z,34.39
2023-04-18T11:47:46.753Z,35.12
2023-04-18T11:50:14.161Z,33.91
2023-04-18T11:52:42.643Z,34.93
2023-04-18T11:55:24.002Z,37.36
2023-04-18T11:57:58.015Z,33.15
2023-04-18T12:00:38.803Z,37.70
2023-04-18T12:03:16.365Z,33.05
2023-04-18T12:05:43.543Z,33.77
2023-04-18T12:08:13.245Z,34.91
2023-04-18T12:10:46.899Z,35.97
2023-04-18T12:13:14.050Z,36.75
2023-04-18T12:15:44.389Z,33.91
2023-04-18T12:18:14.193Z,30.76
2023-04-18T12:20:52.596Z,31.71
2023-04-18T12:23:32.838Z,31.17
2023-04-18T12:26:07.977Z,35.28
2023-04-18T12:28:35.649Z,33.08
2023-04-18T12:31:03.090Z,32.13
2023-04-18T12:33:30.566Z,35.49
2023-04-18T12:35:57.498Z,30.26
2023-04-18T12:38:24.275Z,30.56
2023-04-18T12:40:52.085Z,30.16
2023-04-18T12:43:20.066Z,32.42
2023-04-18T12:45:47.367Z,32.25
2023-04-18T12:48:14.210Z,31.98
2023-04-18T12:50:41.177Z,33.10
2023-04-18T12:53:07.924Z,32.83
2023-04-18T12:55:34.738Z,33.25
2023-04-18T12:58:01.505Z,30.61
2023-04-18T13:00:31.479Z,33.07
2023-04-18T13:02:59.007Z,34.60
2023-04-18T13:05:31.659Z,32.06
2023-04-18T13:08:15.260Z,32.39
2023-04-18T13:10:43.763Z,31.62
2023-04-18T13:13:10.802Z,32.57
2023-04-18T13:15:37.676Z,34.62
2023-04-18T13:18:06.364Z,33.12
2023-04-18T13:20:34.360Z,27.15
2023-04-18T13:23:03.060Z,30.95
2023-04-18T13:25:30.088Z,28.24
2023-04-18T13:27:58.657Z,30.25
2023-04-18T13:30:25.652Z,30.38
2023-04-18T13:32:52.537Z,29.61
2023-04-18T13:35:22.860Z,28.01
2023-04-18T13:37:49.787Z,31.80
2023-04-18T13:40:16.885Z,32.30
2023-04-18T13:42:43.534Z,32.09
2023-04-18T13:45:11.027Z,29.14
2023-04-18T13:47:38.426Z,27.21
2023-04-18T13:50:07.193Z,27.90
2023-04-18T13:52:33.904Z,28.39
2023-04-18T13:55:01.036Z,28.43
2023-04-18T13:57:28.437Z,29.80
2023-04-18T13:59:55.125Z,30.74
2023-04-18T14:02:22.343Z,31.18
2023-04-18T14:04:49.496Z,28.41
2023-04-18T14:07:16.612Z,30.55
2023-04-18T14:09:43.342Z,29.35
2023-04-18T14:12:10.638Z,29.23
2023-04-18T14:14:37.332Z,29.22
2023-04-18T14:17:03.981Z,30.44
2023-04-18T14:19:31.108Z,29.48
2023-04-18T14:22:00.272Z,29.45
2023-04-18T14:24:27.076Z,29.42
2023-04-18T14:26:53.746Z,31.32
2023-04-18T14:29:20.407Z,30.36
2023-04-18T14:31:47.450Z,27.25
2023-04-18T14:34:14.351Z,28.66
2023-04-18T14:36:41.159Z,28.97
2023-04-18T14:39:08.411Z,28.22
2023-04-18T14:41:35.372Z,29.18
2023-04-18T14:44:04.312Z,29.19
2023-04-18T14:46:31.598Z,29.15
2023-04-18T14:48:58.382Z,29.33
2023-04-18T14:51:26.283Z,27.68
2023-04-18T14:53:53.094Z,28.37
2023-04-18T14:56:21.744Z,31.15
2023-04-18T14:58:48.510Z,33.29
2023-04-18T15:01:17.553Z,32.29
2023-04-18T15:03:44.743Z,31.51
2023-04-18T15:06:12.242Z,31.89
2023-04-18T15:08:39.278Z,32.86
2023-04-18T15:11:07.497Z,30.10
2023-04-18T15:13:34.466Z,32.00
2023-04-18T15:16:01.438Z,32.97
2023-04-18T15:18:28.319Z,32.61
2023-04-18T15:20:56.940Z,31.74
2023-04-18T15:23:23.791Z,29.42
2023-04-18T15:25:50.616Z,32.42
2023-04-18T15:28:18.680Z,30.46
2023-04-18T15:30:45.883Z,30.01
2023-04-18T15:33:13.260Z,28.97
2023-04-18T15:35:41.357Z,28.47
2023-04-18T15:38:08.091Z,28.56
2023-04-18T15:40:36.174Z,29.02
2023-04-18T15:43:02.983Z,31.63
2023-04-18T15:45:30.200Z,32.37
2023-04-18T15:47:56.852Z,31.45
2023-04-18T15:50:24.090Z,31.08
2023-04-18T15:52:50.855Z,34.19
2023-04-18T15:55:17.781Z,28.50
2023-04-18T15:57:44.884Z,31.74
2023-04-18T16:00:16.186Z,30.06
2023-04-18T16:02:44.491Z,28.16
2023-04-18T16:05:15.362Z,32.43
2023-04-18T16:07:42.961Z,31.17
2023-04-18T16:10:11.162Z,27.74
2023-04-18T16:12:39.397Z,27.62
2023-04-18T16:15:08.460Z,30.88
2023-04-18T16:17:38.921Z,30.91
2023-04-18T16:20:08.160Z,28.49
2023-04-18T16:22:35.020Z,29.40
2023-04-18T16:25:01.965Z,27.51
2023-04-18T16:27:28.695Z,29.32
2023-04-18T16:29:55.846Z,27.30
2023-04-18T16:32:22.550Z,30.37
2023-04-18T16:34:49.884Z,29.69
2023-04-18T16:37:16.603Z,28.94
2023-04-18T16:39:43.491Z,28.35
2023-04-18T16:42:10.211Z,28.07
2023-04-18T16:44:36.904Z,32.06
2023-04-18T16:47:05.086Z,28.85
2023-04-18T16:49:32.000Z,29.03
2023-04-18T16:51:58.695Z,28.80
2023-04-18T16:54:25.392Z,33.04
2023-04-18T16:56:52.022Z,31.97
2023-04-18T16:59:18.759Z,30.55
2023-04-18T17:01:45.544Z,31.92
2023-04-18T17:04:13.143Z,30.06
2023-04-18T17:06:42.384Z,32.36
2023-04-18T17:09:13.981Z,29.57
2023-04-18T17:11:41.755Z,32.79
2023-04-18T17:14:09.302Z,31.24
2023-04-18T17:16:40.891Z,30.77
2023-04-18T17:19:08.584Z,30.92
2023-04-18T17:21:36.667Z,30.59
2023-04-18T17:24:06.617Z,31.02
2023-04-18T17:26:35.419Z,31.65
2023-04-18T17:29:04.070Z,33.76
2023-04-18T17:31:31.741Z,33.67
2023-04-18T17:33:59.133Z,33.83
2023-04-18T17:36:26.296Z,31.41
2023-04-18T17:38:53.017Z,31.08
2023-04-18T17:41:23.773Z,31.17
2023-04-18T17:43:53.485Z,31.56
2023-04-18T17:46:21.177Z,32.47
2023-04-18T17:48:49.076Z,32.38
2023-04-18T17:51:16.555Z,31.93
2023-04-18T17:53:43.630Z,34.12
2023-04-18T17:56:10.576Z,31.78
2023-04-18T17:58:37.401Z,36.37
2023-04-18T18:01:04.822Z,38.09
2023-04-18T18:03:31.621Z,37.24
2023-04-18T18:05:58.560Z,38.79
2023-04-18T18:08:25.736Z,37.30
2023-04-18T18:10:52.489Z,39.65
2023-04-18T18:13:19.295Z,39.54
2023-04-18T18:15:46.060Z,40.52
2023-04-18T18:18:26.471Z,41.10
2023-04-18T18:20:53.096Z,41.20
2023-04-18T18:23:19.741Z,41.24
2023-04-18T18:25:46.454Z,40.94
2023-04-18T18:28:13.318Z,40.22
2023-04-18T18:30:40.098Z,41.55
2023-04-18T18:33:06.827Z,42.06
2023-04-18T18:35:33.482Z,42.11
2023-04-18T18:38:00.151Z,39.98
2023-04-18T18:40:27.041Z,41.77
2023-04-18T18:42:54.817Z,42.07
2023-04-18T18:45:21.637Z,39.25
2023-04-18T18:47:48.645Z,40.39
2023-04-18T18:50:15.637Z,40.97
2023-04-18T18:52:43.195Z,37.53
2023-04-18T18:55:11.216Z,37.74
2023-04-18T18:57:38.059Z,39.93
2023-04-18T19:00:09.674Z,38.88
2023-04-18T19:02:37.223Z,40.46
2023-04-18T19:05:04.452Z,36.70
2023-04-18T19:07:31.160Z,39.82
2023-04-18T19:10:00.466Z,37.95
2023-04-18T19:12:28.215Z,39.74
2023-04-18T19:14:54.873Z,38.21
2023-04-18T19:17:24.780Z,37.14
2023-04-18T19:19:52.984Z,38.16
2023-04-18T19:22:19.676Z,37.85
2023-04-18T19:24:46.324Z,38.91
2023-04-18T19:27:13.209Z,38.51
2023-04-18T19:29:39.867Z,39.04
2023-04-18T19:32:06.556Z,41.68
2023-04-18T19:34:33.289Z,41.54
2023-04-18T19:37:01.212Z,42.60
2023-04-18T19:39:28.248Z,39.64
2023-04-18T19:41:55.074Z,39.13
2023-04-18T19:44:21.939Z,40.63
2023-04-18T19:46:48.619Z,39.97
2023-04-18T19:49:15.407Z,40.48
2023-04-18T19:51:42.207Z,41.67
2023-04-18T19:54:08.889Z,41.14
2023-04-18T19:56:35.672Z,40.88
2023-04-18T19:59:02.469Z,41.34
2023-04-18T20:01:29.269Z,41.65
2023-04-18T20:03:58.655Z,41.73
2023-04-18T20:06:26.818Z,42.05
2023-04-18T20:08:53.701Z,42.52
2023-04-18T20:11:20.462Z,43.48
2023-04-18T20:13:47.157Z,41.09
2023-04-18T20:16:13.964Z,41.14
2023-04-18T20:18:41.723Z,41.73
2023-04-18T20:21:09.830Z,40.75
2023-04-18T20:23:37.068Z,41.48
2023-04-18T20:26:04.392Z,41.21
2023-04-18T20:28:31.742Z,41.46
2023-04-18T20:30:58.918Z,41.97
2023-04-18T20:33:25.744Z,42.56
2023-04-18T20:35:54.702Z,42.40
2023-04-18T20:38:26.010Z,42.42
2023-04-18T20:40:54.293Z,42.70
2023-04-18T20:43:21.481Z,43.51
2023-04-18T20:45:51.067Z,42.85
2023-04-18T20:48:18.308Z,43.33
2023-04-18T20:50:50.811Z,43.76
2023-04-18T20:53:21.065Z,42.92
2023-04-18T20:55:48.710Z,42.68
2023-04-18T20:58:15.773Z,42.86
2023-04-18T21:00:43.727Z,43.25
2023-04-18T21:03:13.087Z,42.59
2023-04-18T21:05:40.192Z,42.45
2023-04-18T21:08:06.926Z,42.39
2023-04-18T21:10:34.003Z,42.50
2023-04-18T21:13:00.968Z,42.05
2023-04-18T21:15:27.701Z,41.54
2023-04-18T21:17:54.393Z,42.10
2023-04-18T21:20:21.449Z,42.31
2023-04-18T21:22:48.091Z,42.83
2023-04-18T21:25:14.766Z,42.87
2023-04-18T21:27:41.470Z,43.89
2023-04-18T21:30:08.435Z,44.89
2023-04-18T21:32:35.106Z,45.49
2023-04-18T21:35:02.522Z,45.56
2023-04-18T21:37:31.524Z,46.52
2023-04-18T21:39:58.232Z,45.74
2023-04-18T21:42:24.946Z,46.69
2023-04-18T21:44:51.638Z,46.45
2023-04-18T21:47:18.408Z,47.40
2023-04-18T21:49:45.076Z,47.79
2023-04-18T21:52:11.675Z,49.03
2023-04-18T21:54:39.816Z,49.06
2023-04-18T21:57:06.734Z,49.87
2023-04-18T21:59:33.412Z,48.91
2023-04-18T22:02:00.199Z,49.35
2023-04-18T22:04:27.709Z,48.26
2023-04-18T22:06:54.739Z,48.08
2023-04-18T22:09:22.393Z,48.47
2023-04-18T22:11:51.111Z,47.82
2023-04-18T22:14:20.006Z,47.83
2023-04-18T22:16:46.707Z,48.34
2023-04-18T22:19:14.119Z,48.27
2023-04-18T22:21:40.795Z,48.49
2023-04-18T22:24:08.404Z,48.79
2023-04-18T22:26:35.065Z,48.83
2023-04-18T22:29:01.783Z,49.38
2023-04-18T22:31:28.692Z,50.61
2023-04-18T22:33:55.706Z,50.90
2023-04-18T22:36:22.333Z,51.08
2023-04-18T22:38:49.043Z,49.90
2023-04-18T22:41:15.798Z,51.24
2023-04-18T22:43:42.588Z,50.32
2023-04-18T22:46:09.344Z,50.14
2023-04-18T22:48:36.164Z,48.42
2023-04-18T22:51:03.331Z,48.47
2023-04-18T22:53:30.029Z,48.42
2023-04-18T22:55:57.091Z,47.72
2023-04-18T22:58:23.795Z,48.95
2023-04-18T23:00:50.630Z,48.55
2023-04-18T23:03:17.445Z,48.30
2023-04-18T23:05:44.139Z,49.47
2023-04-18T23:08:11.921Z,47.12
2023-04-18T23:10:39.054Z,47.50
2023-04-18T23:13:05.757Z,47.71
2023-04-18T23:15:32.658Z,49.12
2023-04-18T23:17:59.509Z,49.63
2023-04-18T23:20:26.233Z,49.81
2023-04-18T23:22:53.672Z,49.31
2023-04-18T23:25:20.984Z,48.74
2023-04-18T23:27:47.942Z,49.07
2023-04-18T23:30:14.790Z,49.32
2023-04-18T23:32:41.642Z,49.67
2023-04-18T23:35:08.834Z,47.99
2023-04-18T23:37:35.542Z,48.86
2023-04-18T23:40:04.148Z,48.25
2023-04-18T23:42:34.635Z,49.43
2023-04-18T23:45:01.573Z,49.23
2023-04-18T23:47:28.303Z,50.07
2023-04-18T23:49:55.111Z,49.34
2023-04-18T23:52:22.192Z,49.67
2023-04-18T23:54:48.851Z,49.31
2023-04-18T23:57:16.089Z,49.27
2023-04-18T23:59:42.840Z,49.59
